Time;durP1;ratioP1;P1;durP2;ratioP2;P2;SDS_P1;SDS_P2;PMS_P1;PMS_P2;Temp;Humidity;BMP_temperature;BMP_pressure;BME280_temperature;BME280_humidity;BME280_pressure;Samples;Min_cycle;Max_cycle;Signal;HPM_P1;HPM_P2
2022/01/16 00:04:09;;;;;;;46.70;16.65;;;2.60;99.90;;;;;;5131128;27;20221;-83
2022/01/16 00:06:36;;;;;;;46.38;16.85;;;2.50;99.90;;;;;;5112784;27;20081;-82
2022/01/16 00:09:02;;;;;;;46.60;16.40;;;2.50;99.90;;;;;;5096111;27;20082;-83
2022/01/16 00:11:29;;;;;;;47.50;17.20;;;2.90;99.90;;;;;;5094702;27;20084;-82
2022/01/16 00:13:54;;;;;;;37.88;14.82;;;1.20;99.90;;;;;;5096680;27;20039;-82
2022/01/16 00:16:21;;;;;;;45.95;16.83;;;2.40;99.90;;;;;;5111607;27;20563;-82
2022/01/16 00:18:49;;;;;;;42.88;16.02;;;4.20;99.90;;;;;;5095935;27;20043;-82
2022/01/16 00:21:40;;;;;;;49.35;16.42;;;2.40;99.90;;;;;;5112534;27;20494;-82
2022/01/16 00:24:07;;;;;;;40.33;14.75;;;2.40;99.90;;;;;;5094659;27;20047;-82
2022/01/16 00:26:33;;;;;;;40.60;15.55;;;2.40;99.90;;;;;;5113249;27;20050;-82
2022/01/16 00:28:59;;;;;;;45.35;16.38;;;2.30;99.90;;;;;;5111096;27;20035;-82
2022/01/16 00:31:25;;;;;;;47.25;17.13;;;2.30;99.90;;;;;;5112958;27;20039;-83
2022/01/16 00:33:51;;;;;;;39.70;15.48;;;3.40;99.90;;;;;;5111846;27;20050;-82
2022/01/16 00:36:19;;;;;;;39.38;15.18;;;2.20;99.90;;;;;;5095045;27;20050;-82
2022/01/16 00:38:49;;;;;;;42.08;15.10;;;2.20;99.90;;;;;;5112084;27;20555;-82
2022/01/16 00:41:20;;;;;;;38.28;16.05;;;2.20;99.90;;;;;;5094130;27;20047;-82
2022/01/16 00:43:48;;;;;;;40.28;15.20;;;2.20;99.90;;;;;;5096077;27;20126;-82
2022/01/16 00:46:14;;;;;;;37.95;14.85;;;2.10;99.90;;;;;;5110804;27;20055;-82
2022/01/16 00:48:40;;;;;;;39.95;16.13;;;2.10;99.90;;;;;;5095413;27;20482;-82
2022/01/16 00:51:06;;;;;;;45.63;18.13;;;3.00;99.90;;;;;;5094452;27;20049;-82
2022/01/16 00:53:31;;;;;;;39.88;16.77;;;2.10;99.90;;;;;;5111454;27;20130;-82
2022/01/16 00:55:57;;;;;;;42.78;17.95;;;2.10;99.90;;;;;;5112020;27;20142;-83
2022/01/16 00:58:23;;;;;;;43.55;16.80;;;2.10;99.90;;;;;;5093321;27;20489;-82
2022/01/16 01:00:51;;;;;;;40.95;16.13;;;2.70;99.90;;;;;;5130759;27;20088;-82
2022/01/16 01:03:17;;;;;;;34.78;14.93;;;2.10;99.90;;;;;;5093630;27;20035;-82
2022/01/16 01:05:43;;;;;;;45.15;16.08;;;2.00;99.90;;;;;;5112449;27;20047;-82
2022/01/16 01:08:09;;;;;;;48.75;18.45;;;2.10;99.90;;;;;;5110706;27;20501;-82
2022/01/16 01:10:38;;;;;;;52.10;17.08;;;2.10;99.90;;;;;;5111295;27;20134;-82
2022/01/16 01:13:10;;;;;;;52.00;17.73;;;2.10;99.90;;;;;;5112065;27;20455;-82
2022/01/16 01:15:43;;;;;;;49.00;15.65;;;2.10;99.90;;;;;;5110757;27;20391;-82
2022/01/16 01:18:09;;;;;;;48.67;17.58;;;2.10;99.90;;;;;;5112692;27;20043;-83
2022/01/16 01:20:36;;;;;;;50.47;17.17;;;2.10;99.90;;;;;;5110408;27;20067;-83
2022/01/16 01:23:01;;;;;;;51.58;19.48;;;2.00;99.90;;;;;;5094386;27;20043;-82
2022/01/16 01:25:27;;;;;;;57.17;21.20;;;2.10;99.90;;;;;;5111327;27;20058;-83
2022/01/16 01:27:53;;;;;;;51.08;20.05;;;3.70;99.90;;;;;;5093714;27;20082;-83
2022/01/16 01:30:23;;;;;;;47.17;19.48;;;2.10;99.90;;;;;;5094615;27;20051;-83
2022/01/16 01:32:49;;;;;;;59.22;22.02;;;2.10;99.90;;;;;;5093859;27;20043;-82
2022/01/16 01:35:16;;;;;;;54.33;20.08;;;2.10;99.90;;;;;;5094749;27;20590;-83
2022/01/16 01:37:42;;;;;;;59.65;20.38;;;2.10;99.90;;;;;;5093097;27;20047;-82
2022/01/16 01:40:12;;;;;;;53.53;21.00;;;2.10;99.90;;;;;;5111157;27;20035;-83
2022/01/16 01:42:49;;;;;;;59.90;21.10;;;2.20;99.90;;;;;;5129760;27;20443;-82
2022/01/16 01:51:12;;;;;;;46.42;19.40;;;2.20;99.90;;;;;;5110469;27;20058;-83
2022/01/16 01:53:39;;;;;;;52.30;20.40;;;2.20;99.90;;;;;;5110439;27;20482;-83
2022/01/16 01:56:08;;;;;;;58.05;20.80;;;2.20;99.90;;;;;;5094045;27;20050;-83
2022/01/16 01:58:34;;;;;;;53.55;21.50;;;2.20;99.90;;;;;;5109078;27;20085;-83
2022/01/16 02:01:00;;;;;;;56.05;21.77;;;2.20;99.90;;;;;;5111185;27;20082;-83
2022/01/16 02:06:08;;;;;;;52.50;23.17;;;2.20;99.90;;;;;;5110518;27;20642;-82
2022/01/16 02:08:36;;;;;;;55.92;21.42;;;2.20;99.90;;;;;;5110372;27;20039;-83
2022/01/16 02:11:03;;;;;;;59.10;23.20;;;2.20;99.90;;;;;;5109261;27;20051;-83
2022/01/16 02:13:44;;;;;;;55.85;23.65;;;2.20;99.90;;;;;;5077933;27;20391;-83
2022/01/16 02:35:08;;;;;;;64.95;22.83;;;2.30;99.90;;;;;;5093631;27;20050;-82
2022/01/16 02:37:34;;;;;;;63.92;21.13;;;2.70;99.90;;;;;;5075715;27;20035;-82
2022/01/16 02:40:07;;;;;;;57.42;20.88;;;2.30;99.90;;;;;;5093049;27;20046;-82
2022/01/16 02:42:38;;;;;;;65.10;22.42;;;2.20;99.90;;;;;;5092949;27;20475;-82
2022/01/16 02:45:06;;;;;;;62.83;22.42;;;2.50;99.90;;;;;;5092302;27;20062;-82
2022/01/16 02:47:32;;;;;;;68.78;22.42;;;2.30;99.90;;;;;;5110352;27;20522;-82
2022/01/16 02:50:00;;;;;;;71.60;24.73;;;2.20;99.90;;;;;;5108871;27;20043;-82
2022/01/16 02:52:26;;;;;;;56.15;21.88;;;2.20;99.90;;;;;;5110704;27;20386;-82
2022/01/16 02:54:54;;;;;;;62.70;22.13;;;2.20;99.90;;;;;;5108934;28;20039;-82
2022/01/16 02:57:21;;;;;;;60.60;20.35;;;2.20;99.90;;;;;;5109733;27;20131;-82
2022/01/16 02:59:53;;;;;;;75.88;23.20;;;2.30;99.90;;;;;;5093043;28;20039;-82
2022/01/16 03:02:21;;;;;;;51.55;21.05;;;2.20;99.90;;;;;;5109022;28;20048;-83
2022/01/16 03:04:47;;;;;;;60.13;20.58;;;2.20;99.90;;;;;;5110267;28;20081;-82
2022/01/16 03:07:13;;;;;;;59.78;20.73;;;2.20;99.90;;;;;;5108400;28;20088;-82
2022/01/16 03:10:08;;;;;;;62.90;21.98;;;2.20;99.90;;;;;;5110204;28;20082;-82
2022/01/16 03:12:34;;;;;;;57.03;19.98;;;2.20;99.90;;;;;;5110016;28;20043;-82
2022/01/16 03:15:00;;;;;;;56.50;21.08;;;3.70;99.90;;;;;;5092229;28;20399;-82
2022/01/16 03:17:52;;;;;;;55.97;20.65;;;2.20;99.90;;;;;;5076149;28;20100;-82
2022/01/16 03:23:03;;;;;;;59.83;20.15;;;2.20;99.90;;;;;;5113079;27;20528;-82
2022/01/16 03:25:29;;;;;;;63.53;22.90;;;2.20;99.90;;;;;;5096610;27;20112;-82
2022/01/16 03:27:54;;;;;;;62.60;22.10;;;2.20;99.90;;;;;;5095824;27;20043;-82
2022/01/16 03:30:20;;;;;;;55.72;19.80;;;2.30;99.90;;;;;;5114181;27;20043;-82
2022/01/16 03:32:46;;;;;;;69.95;21.13;;;2.20;99.90;;;;;;5078876;27;20045;-82
2022/01/16 03:35:11;;;;;;;57.90;21.45;;;2.20;99.90;;;;;;5080086;27;20178;-81
2022/01/16 03:37:37;;;;;;;67.43;23.15;;;2.20;99.90;;;;;;5113035;27;20049;-81
2022/01/16 03:40:06;;;;;;;66.10;22.75;;;2.20;99.90;;;;;;5079818;27;20479;-81
2022/01/16 03:42:35;;;;;;;62.88;23.38;;;2.20;99.90;;;;;;5096161;27;20566;-81
2022/01/16 03:45:01;;;;;;;67.18;22.35;;;2.30;99.90;;;;;;5095056;27;20035;-81
2022/01/16 03:47:27;;;;;;;62.22;21.65;;;2.30;99.90;;;;;;5097092;27;20088;-81
2022/01/16 03:49:52;;;;;;;64.38;22.55;;;2.30;99.90;;;;;;5112244;27;20545;-81
2022/01/16 03:52:18;;;;;;;74.32;24.08;;;2.30;99.90;;;;;;5097172;27;20050;-81
2022/01/16 03:54:44;;;;;;;66.82;21.98;;;2.30;99.90;;;;;;5112226;27;20423;-81
2022/01/16 03:57:09;;;;;;;74.50;24.73;;;2.30;99.90;;;;;;5095889;27;20034;-82
2022/01/16 03:59:35;;;;;;;71.72;24.27;;;2.40;99.90;;;;;;5096272;27;20137;-81
2022/01/16 04:02:02;;;;;;;70.78;23.35;;;2.40;99.90;;;;;;5095192;27;20050;-82
2022/01/16 04:04:27;;;;;;;73.03;25.05;;;2.40;99.90;;;;;;5096230;27;20059;-81
2022/01/16 04:06:53;;;;;;;73.07;23.98;;;2.40;99.90;;;;;;5095158;27;20449;-81
2022/01/16 04:09:19;;;;;;;82.85;25.23;;;4.20;99.90;;;;;;5113448;27;20135;-82
2022/01/16 04:11:51;;;;;;;76.05;24.67;;;2.40;99.90;;;;;;5095223;27;20092;-81
2022/01/16 04:14:23;;;;;;;72.60;24.30;;;2.40;99.90;;;;;;5112863;27;20054;-82
2022/01/16 04:16:52;;;;;;;80.32;24.13;;;2.50;99.90;;;;;;5095649;27;20042;-81
2022/01/16 04:19:18;;;;;;;64.13;23.20;;;2.50;99.90;;;;;;5112276;27;20128;-82
2022/01/16 04:21:44;;;;;;;75.00;25.20;;;2.50;99.90;;;;;;5113390;27;20057;-82
2022/01/16 04:24:10;;;;;;;84.80;25.40;;;2.50;99.90;;;;;;5094274;27;20043;-82
2022/01/16 04:26:35;;;;;;;76.68;24.05;;;2.50;99.90;;;;;;5079156;27;20051;-81
2022/01/16 04:29:01;;;;;;;87.90;24.27;;;3.70;99.90;;;;;;5094604;27;20043;-81
2022/01/16 04:31:27;;;;;;;83.18;24.88;;;2.50;99.90;;;;;;5094997;27;20043;-81
2022/01/16 04:33:53;;;;;;;85.72;25.80;;;2.50;99.90;;;;;;5095079;27;20114;-81
2022/01/16 04:36:18;;;;;;;83.80;24.60;;;2.90;99.90;;;;;;5094358;27;20131;-82
2022/01/16 04:38:46;;;;;;;87.43;26.75;;;2.60;99.90;;;;;;5113035;27;20047;-81
2022/01/16 04:43:58;;;;;;;79.13;25.98;;;2.60;99.90;;;;;;5112765;27;20043;-81
2022/01/16 04:46:29;;;;;;;84.65;25.00;;;2.60;99.90;;;;;;5111716;27;20119;-81
2022/01/16 04:48:56;;;;;;;82.25;25.50;;;2.70;99.90;;;;;;5111412;27;20074;-83
2022/01/16 04:51:23;;;;;;;79.10;24.92;;;3.20;99.90;;;;;;5112408;27;20125;-82
2022/01/16 04:53:49;;;;;;;85.07;24.35;;;2.70;99.90;;;;;;5093816;27;20103;-81
2022/01/16 04:56:15;;;;;;;80.90;25.13;;;2.70;99.90;;;;;;5112575;27;20043;-82
2022/01/16 04:58:42;;;;;;;77.90;24.80;;;2.70;99.90;;;;;;5093868;27;20043;-82
2022/01/16 05:01:08;;;;;;;85.25;26.70;;;2.80;99.90;;;;;;5112424;27;20038;-81
2022/01/16 05:03:35;;;;;;;82.25;25.45;;;4.60;99.90;;;;;;5111377;27;20039;-81
2022/01/16 05:06:02;;;;;;;84.45;25.27;;;2.80;99.90;;;;;;5111156;27;20051;-81
2022/01/16 05:08:28;;;;;;;88.60;25.33;;;2.80;99.90;;;;;;5078281;27;20039;-81
2022/01/16 05:10:56;;;;;;;88.50;25.17;;;2.90;99.90;;;;;;5110601;27;20388;-82
2022/01/16 05:18:35;;;;;;;90.07;25.95;;;4.40;99.90;;;;;;5111751;27;20062;-82
2022/01/16 05:21:01;;;;;;;87.55;26.80;;;2.90;99.90;;;;;;5111374;27;20047;-82
2022/01/16 05:23:27;;;;;;;92.40;26.13;;;4.00;99.90;;;;;;5110540;27;20054;-82
2022/01/16 05:25:53;;;;;;;87.50;24.67;;;3.00;99.90;;;;;;5111928;27;20091;-82
2022/01/16 05:28:19;;;;;;;105.00;28.05;;;3.00;99.90;;;;;;5110387;27;20057;-82
2022/01/16 05:30:45;;;;;;;98.30;27.05;;;3.00;99.90;;;;;;5112322;27;20443;-82
2022/01/16 05:33:10;;;;;;;93.28;26.08;;;3.00;99.90;;;;;;5093380;27;20041;-82
2022/01/16 05:35:36;;;;;;;87.80;27.35;;;3.00;99.90;;;;;;5094058;27;20043;-82
2022/01/16 05:38:02;;;;;;;104.30;28.05;;;3.10;99.90;;;;;;5110717;27;20086;-82
2022/01/16 05:40:28;;;;;;;85.30;26.38;;;3.10;99.90;;;;;;5110616;27;20394;-82
2022/01/16 05:42:55;;;;;;;91.70;25.67;;;3.10;99.90;;;;;;5111726;27;20039;-82
2022/01/16 05:45:21;;;;;;;105.25;27.63;;;4.00;99.90;;;;;;5092247;27;20324;-82
2022/01/16 05:47:47;;;;;;;92.18;28.75;;;3.10;99.90;;;;;;5111114;27;20043;-82
2022/01/16 05:50:13;;;;;;;93.30;27.05;;;3.10;99.90;;;;;;5109942;27;20058;-82
2022/01/16 05:52:40;;;;;;;101.10;28.20;;;3.20;99.90;;;;;;5093860;27;20047;-82
2022/01/16 05:55:06;;;;;;;97.47;27.95;;;3.10;99.90;;;;;;5110724;27;20043;-82
2022/01/16 05:57:32;;;;;;;107.10;28.25;;;3.20;99.90;;;;;;5110191;27;20070;-82
2022/01/16 05:59:58;;;;;;;100.38;27.70;;;4.20;99.90;;;;;;5094202;27;20486;-82
2022/01/16 06:02:25;;;;;;;91.22;27.98;;;3.20;99.90;;;;;;5109454;27;20055;-82
2022/01/16 06:04:51;;;;;;;95.78;27.40;;;4.40;99.90;;;;;;5129848;27;20042;-82
2022/01/16 06:07:17;;;;;;;105.68;26.67;;;3.20;99.90;;;;;;5109618;27;20394;-82
2022/01/16 06:09:43;;;;;;;100.72;27.83;;;3.20;99.90;;;;;;5093889;27;20637;-82
2022/01/16 06:12:09;;;;;;;92.95;26.85;;;3.30;99.90;;;;;;5076353;27;20703;-82
2022/01/16 06:14:34;;;;;;;92.00;25.33;;;3.30;99.90;;;;;;5109618;27;20047;-82
2022/01/16 06:17:00;;;;;;;92.88;27.23;;;3.30;99.90;;;;;;5076720;27;20047;-81
2022/01/16 06:19:26;;;;;;;120.90;29.23;;;3.30;99.90;;;;;;5109123;27;20045;-82
2022/01/16 06:21:52;;;;;;;88.47;25.48;;;3.30;99.90;;;;;;5111123;27;20139;-81
2022/01/16 06:24:17;;;;;;;102.53;28.02;;;3.30;99.90;;;;;;5075693;27;20394;-82
2022/01/16 06:26:43;;;;;;;107.57;29.75;;;3.50;99.90;;;;;;5110260;27;20554;-82
2022/01/16 06:29:09;;;;;;;98.50;28.40;;;3.30;99.90;;;;;;5093331;27;20110;-79
2022/01/16 06:31:35;;;;;;;104.97;29.70;;;3.30;99.90;;;;;;5092980;27;20034;-82
2022/01/16 06:34:02;;;;;;;88.22;27.80;;;3.40;99.90;;;;;;5110894;27;20612;-81
2022/01/16 06:36:28;;;;;;;99.55;27.27;;;3.40;99.90;;;;;;5108883;27;20051;-82
2022/01/16 06:38:55;;;;;;;101.88;27.48;;;3.40;99.90;;;;;;5093692;27;20063;-82
2022/01/16 06:41:21;;;;;;;93.85;28.20;;;3.70;99.90;;;;;;5092280;27;20043;-83
2022/01/16 06:43:46;;;;;;;96.93;28.98;;;3.50;99.90;;;;;;5093028;27;20120;-83
2022/01/16 06:46:12;;;;;;;93.75;26.92;;;3.50;99.90;;;;;;5106075;28;20070;-83
2022/01/16 06:48:40;;;;;;;95.70;29.52;;;3.50;99.90;;;;;;5105797;28;20098;-83
2022/01/16 06:51:07;;;;;;;102.75;28.58;;;3.60;99.90;;;;;;5107073;28;20481;-83
2022/01/16 06:53:33;;;;;;;104.75;28.15;;;3.60;99.90;;;;;;5105368;28;20039;-82
2022/01/16 06:55:59;;;;;;;101.38;28.73;;;3.60;99.90;;;;;;5072846;28;20434;-82
2022/01/16 06:58:24;;;;;;;93.35;28.98;;;3.60;99.90;;;;;;5105772;28;20137;-81
2022/01/16 07:00:51;;;;;;;96.18;29.88;;;3.70;99.90;;;;;;5056220;28;20208;-81
2022/01/16 07:03:16;;;;;;;90.82;28.20;;;3.70;99.90;;;;;;5106226;28;20039;-81
2022/01/16 07:05:43;;;;;;;110.00;29.65;;;3.70;99.90;;;;;;5072440;28;20052;-80
2022/01/16 07:08:09;;;;;;;104.13;30.13;;;3.80;99.90;;;;;;5089445;28;20127;-81
2022/01/16 07:10:35;;;;;;;106.68;29.88;;;3.80;99.90;;;;;;5105177;28;20737;-82
2022/01/16 07:13:02;;;;;;;98.07;29.13;;;3.80;99.90;;;;;;5108141;28;20062;-84
2022/01/16 07:15:28;;;;;;;103.40;31.33;;;3.90;99.90;;;;;;5105056;28;20482;-82
2022/01/16 07:17:54;;;;;;;93.88;29.75;;;4.30;99.90;;;;;;5106843;28;20044;-81
2022/01/16 07:20:19;;;;;;;89.40;28.02;;;3.90;99.90;;;;;;5106034;28;20063;-81
2022/01/16 07:22:45;;;;;;;94.05;29.33;;;4.00;99.90;;;;;;5088759;28;20079;-81
2022/01/16 07:25:13;;;;;;;94.13;29.55;;;5.40;99.90;;;;;;5089414;28;20054;-81
2022/01/16 07:27:40;;;;;;;94.50;29.42;;;4.00;99.90;;;;;;5088606;28;20448;-82
2022/01/16 07:30:07;;;;;;;96.15;29.92;;;4.00;99.90;;;;;;5089997;28;20043;-82
2022/01/16 07:32:33;;;;;;;94.85;31.15;;;4.10;99.90;;;;;;5088409;28;20130;-82
2022/01/16 07:34:59;;;;;;;99.07;30.60;;;4.10;99.90;;;;;;5089669;28;20127;-83
2022/01/16 07:37:25;;;;;;;89.22;28.02;;;5.00;99.90;;;;;;5105735;28;20093;-82
2022/01/16 07:39:51;;;;;;;84.38;29.42;;;4.20;99.90;;;;;;5105644;28;20514;-83
2022/01/16 07:42:17;;;;;;;90.13;32.10;;;4.20;99.90;;;;;;5089456;28;20083;-82
2022/01/16 07:44:43;;;;;;;92.65;30.17;;;4.20;99.90;;;;;;5104971;28;20044;-83
2022/01/16 07:47:10;;;;;;;86.85;31.75;;;4.20;99.90;;;;;;5089279;28;20056;-83
2022/01/16 07:49:36;;;;;;;89.05;30.63;;;4.30;99.90;;;;;;5104356;28;20049;-83
2022/01/16 07:52:02;;;;;;;83.10;30.33;;;4.30;99.90;;;;;;5107521;28;20123;-83
2022/01/16 07:54:27;;;;;;;82.72;29.63;;;4.40;99.90;;;;;;5088570;28;20040;-82
2022/01/16 07:56:53;;;;;;;81.28;29.17;;;4.40;99.90;;;;;;5105187;28;20569;-83
2022/01/16 07:59:19;;;;;;;87.30;29.17;;;4.40;99.90;;;;;;5088648;28;20043;-83
2022/01/16 08:01:44;;;;;;;76.10;26.40;;;4.40;99.90;;;;;;5087829;28;20047;-82
2022/01/16 08:04:10;;;;;;;82.90;28.67;;;4.50;99.90;;;;;;5106255;28;20115;-83
2022/01/16 08:06:36;;;;;;;82.93;30.45;;;4.40;99.90;;;;;;5104477;28;20047;-82
2022/01/16 08:09:02;;;;;;;69.93;28.42;;;4.40;99.90;;;;;;5111252;28;20054;-82
2022/01/16 08:11:28;;;;;;;77.78;28.08;;;4.50;99.90;;;;;;5091668;28;20036;-82
2022/01/16 08:13:54;;;;;;;74.53;27.50;;;4.50;99.90;;;;;;5109317;28;20047;-82
2022/01/16 08:16:19;;;;;;;81.63;29.77;;;4.50;99.90;;;;;;5109426;28;20047;-82
2022/01/16 08:18:45;;;;;;;78.60;29.33;;;4.60;99.90;;;;;;5091808;28;20555;-82
2022/01/16 08:21:11;;;;;;;65.57;28.35;;;4.60;99.90;;;;;;5109665;28;20479;-82
2022/01/16 08:23:36;;;;;;;67.70;26.85;;;6.30;99.90;;;;;;5091435;28;20040;-83
2022/01/16 08:26:04;;;;;;;73.30;27.60;;;4.70;99.90;;;;;;5111221;28;20075;-84
2022/01/16 08:28:30;;;;;;;59.35;26.30;;;5.60;99.90;;;;;;5109885;28;20400;-82
2022/01/16 08:30:55;;;;;;;57.17;27.77;;;4.80;99.90;;;;;;5091944;28;20039;-84
2022/01/16 08:33:21;;;;;;;64.68;26.25;;;6.10;99.90;;;;;;5091761;28;20032;-81
2022/01/16 08:35:47;;;;;;;66.07;26.92;;;6.50;99.90;;;;;;5108354;28;20039;-83
2022/01/16 08:38:13;;;;;;;53.33;23.85;;;4.90;99.90;;;;;;5109263;28;20090;-83
2022/01/16 08:40:39;;;;;;;55.80;24.92;;;4.90;99.90;;;;;;5073849;28;20105;-82
2022/01/16 08:43:08;;;;;;;56.85;24.95;;;5.00;99.90;;;;;;5109620;28;20062;-80
2022/01/16 08:45:39;;;;;;;50.83;22.80;;;5.00;99.90;;;;;;5091555;28;20108;-81
2022/01/16 08:48:06;;;;;;;54.13;22.10;;;5.00;99.90;;;;;;5108367;28;20048;-83
2022/01/16 08:50:33;;;;;;;52.35;22.10;;;5.10;99.90;;;;;;5108561;28;20594;-82
2022/01/16 08:52:59;;;;;;;43.75;22.10;;;6.90;99.90;;;;;;5108037;28;20112;-81
2022/01/16 08:55:25;;;;;;;44.22;22.38;;;5.10;99.90;;;;;;5075526;28;20048;-80
2022/01/16 08:58:21;;;;;;;51.25;21.73;;;5.20;99.90;;;;;;5090518;28;20448;-83
2022/01/16 09:00:48;;;;;;;49.13;21.55;;;5.30;99.90;;;;;;5091053;28;20046;-83
2022/01/16 09:03:14;;;;;;;45.50;21.05;;;7.10;99.90;;;;;;5073163;28;20401;-82
2022/01/16 09:05:40;;;;;;;44.17;19.38;;;4.00;99.90;;;;;;5072651;28;20035;-83
2022/01/16 09:08:06;;;;;;;45.13;21.05;;;5.30;99.90;;;;;;5107945;28;20056;-83
2022/01/16 09:10:32;;;;;;;42.75;21.20;;;6.60;99.90;;;;;;5106887;28;20071;-83
2022/01/16 09:12:58;;;;;;;39.88;20.02;;;5.40;99.90;;;;;;5109671;28;20040;-82
2022/01/16 09:15:23;;;;;;;40.00;19.45;;;7.20;99.90;;;;;;5106198;28;20047;-83
2022/01/16 09:17:49;;;;;;;45.92;20.48;;;6.30;99.90;;;;;;5108853;28;20035;-83
2022/01/16 09:20:18;;;;;;;45.13;20.70;;;5.50;99.90;;;;;;5105995;28;20044;-82
2022/01/16 09:22:45;;;;;;;40.92;20.00;;;5.50;99.90;;;;;;5090087;28;20047;-83
2022/01/16 09:25:14;;;;;;;40.13;19.38;;;7.10;99.90;;;;;;5108922;28;20509;-84
2022/01/16 09:27:40;;;;;;;39.75;19.38;;;5.60;99.90;;;;;;5107064;28;20079;-83
2022/01/16 09:30:07;;;;;;;42.45;17.52;;;5.60;99.90;;;;;;5107750;28;20079;-82
2022/01/16 09:32:33;;;;;;;34.70;19.25;;;5.70;99.90;;;;;;5108054;28;20043;-82
2022/01/16 09:35:01;;;;;;;40.40;18.67;;;5.70;99.90;;;;;;5108971;28;20123;-83
2022/01/16 09:37:27;;;;;;;34.85;19.85;;;7.60;99.90;;;;;;5107616;28;20093;-83
2022/01/16 09:39:54;;;;;;;39.75;19.95;;;7.70;99.90;;;;;;5107185;28;20054;-82
2022/01/16 09:42:22;;;;;;;37.40;19.50;;;5.80;99.90;;;;;;5108717;28;20059;-83
2022/01/16 09:44:48;;;;;;;33.35;17.83;;;5.90;99.90;;;;;;5105988;28;20497;-82
2022/01/16 09:47:14;;;;;;;29.85;17.65;;;5.90;99.90;;;;;;5128095;27;20100;-82
2022/01/16 09:49:40;;;;;;;45.10;17.95;;;5.90;99.90;;;;;;5109457;27;20047;-81
2022/01/16 09:52:07;;;;;;;39.15;18.77;;;6.10;99.90;;;;;;5129636;27;20510;-83
2022/01/16 09:54:35;;;;;;;33.45;18.27;;;6.00;99.90;;;;;;5128140;27;20130;-82
2022/01/16 09:57:01;;;;;;;34.45;17.30;;;6.00;99.90;;;;;;5128502;27;20075;-82
2022/01/16 09:59:26;;;;;;;27.77;16.25;;;6.00;99.90;;;;;;5076704;27;20466;-83
2022/01/16 10:01:52;;;;;;;29.42;17.95;;;6.00;99.90;;;;;;5128177;27;20096;-83
2022/01/16 10:04:36;;;;;;;35.22;17.45;;;7.10;99.90;;;;;;5110589;27;20442;-83
2022/01/16 10:07:06;;;;;;;35.58;17.05;;;6.50;99.90;;;;;;5092579;27;20051;-83
2022/01/16 10:09:35;;;;;;;34.97;17.63;;;6.00;99.90;;;;;;5093757;27;20117;-83
2022/01/16 10:12:03;;;;;;;32.92;16.83;;;6.00;99.90;;;;;;5109937;27;20561;-83
2022/01/16 10:14:31;;;;;;;33.35;17.00;;;6.00;99.90;;;;;;5092363;27;20372;-82
2022/01/16 10:16:57;;;;;;;39.92;17.05;;;6.00;99.90;;;;;;5093714;27;20131;-82
2022/01/16 10:19:28;;;;;;;37.00;19.38;;;6.10;99.90;;;;;;5092411;27;20137;-82
2022/01/16 10:22:01;;;;;;;28.45;16.13;;;6.10;99.90;;;;;;5093747;27;20103;-83
2022/01/16 10:24:29;;;;;;;30.38;17.60;;;6.20;99.90;;;;;;5092309;27;20050;-82
2022/01/16 10:27:07;;;;;;;34.15;18.17;;;6.70;99.90;;;;;;5093183;27;20482;-83
2022/01/16 10:29:47;;;;;;;39.28;17.55;;;6.30;99.90;;;;;;5110507;27;20078;-82
2022/01/16 10:32:20;;;;;;;29.90;14.93;;;6.30;99.90;;;;;;5108956;27;20050;-83
2022/01/16 10:34:46;;;;;;;;;;;7.90;99.90;;;;;;5111484;27;20043;-84
2022/01/16 10:37:31;;;;;;;31.38;15.85;;;6.40;99.90;;;;;;5091621;27;19923;-82
2022/01/16 10:40:08;;;;;;;29.95;16.70;;;6.40;99.90;;;;;;5109415;27;20054;-83
2022/01/16 10:42:34;;;;;;;32.60;15.70;;;6.40;99.90;;;;;;5109541;27;20058;-81
2022/01/16 10:45:04;;;;;;;31.05;15.85;;;6.50;99.90;;;;;;5073951;27;20042;-81
2022/01/16 10:47:47;;;;;;;30.80;16.05;;;7.10;99.90;;;;;;5091809;27;20134;-82
2022/01/16 10:50:31;;;;;;;36.13;15.75;;;6.60;99.90;;;;;;5106683;27;20058;-81
2022/01/16 10:53:12;;;;;;;35.58;15.15;;;8.00;99.90;;;;;;5091304;27;20039;-81
2022/01/16 10:55:49;;;;;;;33.47;15.05;;;6.70;99.90;;;;;;5128221;27;20049;-82
2022/01/16 10:58:27;;;;;;;36.78;14.68;;;6.70;99.90;;;;;;5109166;27;20051;-82
2022/01/16 11:01:03;;;;;;;27.55;14.80;;;6.80;99.90;;;;;;5128047;27;20409;-82
2022/01/16 11:03:41;;;;;;;32.15;14.30;;;6.80;99.90;;;;;;5108914;28;20039;-82
2022/01/16 11:06:07;;;;;;;30.00;13.43;;;6.80;99.90;;;;;;5126461;27;20046;-82
2022/01/16 11:08:33;;;;;;;29.17;13.52;;;7.50;99.90;;;;;;5074116;28;20047;-82
2022/01/16 11:11:00;;;;;;;25.52;13.55;;;8.30;99.90;;;;;;5072945;28;20824;-83
2022/01/16 11:13:32;;;;;;;32.30;13.60;;;6.90;99.90;;;;;;5109433;28;20043;-83
2022/01/16 11:16:04;;;;;;;21.27;10.55;;;8.60;99.90;;;;;;5092157;28;20051;-81
2022/01/16 11:18:35;;;;;;;22.13;9.57;;;6.90;99.90;;;;;;5109140;28;20049;-82
2022/01/16 11:23:47;;;;;;;23.48;12.57;;;6.90;99.90;;;;;;5106139;28;20130;-82
2022/01/16 11:26:23;;;;;;;26.20;13.55;;;7.00;99.90;;;;;;5107526;28;20135;-82
2022/01/16 11:28:58;;;;;;;31.08;13.32;;;8.10;99.90;;;;;;5086059;28;20561;-82
2022/01/16 11:31:24;;;;;;;23.67;11.65;;;7.00;99.90;;;;;;5090305;28;20056;-82
2022/01/16 11:33:50;;;;;;;30.75;10.88;;;7.00;99.90;;;;;;5092261;28;20043;-81
2022/01/16 11:36:18;;;;;;;24.08;10.98;;;8.30;99.90;;;;;;5086604;28;20043;-84
2022/01/16 11:38:54;;;;;;;28.42;10.80;;;7.00;99.90;;;;;;5092085;28;20145;-82
2022/01/16 11:41:30;;;;;;;25.77;11.60;;;7.00;99.90;;;;;;5106400;27;20050;-85
2022/01/16 11:43:56;;;;;;;27.30;10.52;;;8.80;99.90;;;;;;5095231;27;20050;-84
2022/01/16 11:46:25;;;;;;;29.70;10.18;;;7.10;99.90;;;;;;5095206;27;20059;-83
2022/01/16 11:48:55;;;;;;;21.67;9.10;;;7.20;99.90;;;;;;5112026;27;20870;-84
2022/01/16 11:51:37;;;;;;;28.52;8.93;;;7.00;99.90;;;;;;5096626;27;20035;-83
2022/01/16 11:54:08;;;;;;;27.70;10.18;;;7.10;99.90;;;;;;5111953;27;20054;-83
2022/01/16 11:56:37;;;;;;;21.13;9.35;;;7.10;99.90;;;;;;5113297;27;20103;-84
2022/01/16 11:59:15;;;;;;;20.48;8.75;;;8.30;99.90;;;;;;5095851;27;20137;-83
2022/01/16 12:02:16;;;;;;;24.20;8.95;;;7.10;99.90;;;;;;5095122;27;20133;-83
2022/01/16 12:04:49;;;;;;;22.17;8.23;;;7.20;99.90;;;;;;5096209;27;20114;-84
2022/01/16 12:07:19;;;;;;;21.95;8.30;;;7.20;99.90;;;;;;5095793;27;20490;-84
2022/01/16 12:09:57;;;;;;;14.98;8.35;;;7.20;99.90;;;;;;5112458;27;20055;-83
2022/01/16 12:12:22;;;;;;;29.45;9.02;;;7.20;99.90;;;;;;5112869;27;20509;-82
2022/01/16 12:15:08;;;;;;;21.85;8.93;;;7.30;99.90;;;;;;5111119;27;20051;-83
2022/01/16 12:18:02;;;;;;;16.63;7.25;;;7.20;99.90;;;;;;5111152;27;20083;-82
2022/01/16 12:20:30;;;;;;;19.13;8.60;;;7.20;99.90;;;;;;5095226;27;20047;-83
2022/01/16 12:23:06;;;;;;;17.15;6.70;;;7.80;99.90;;;;;;5094883;27;20100;-83
2022/01/16 12:25:56;;;;;;;14.75;6.65;;;7.20;99.90;;;;;;5110349;27;20055;-84
2022/01/16 12:28:25;;;;;;;16.08;6.25;;;5.50;99.90;;;;;;5109761;27;20078;-84
2022/01/16 12:31:00;;;;;;;12.75;5.28;;;7.40;99.90;;;;;;5076910;27;20043;-84
2022/01/16 12:33:28;;;;;;;15.20;5.57;;;7.30;99.90;;;;;;5093593;27;20039;-84
2022/01/16 12:35:54;;;;;;;15.90;5.90;;;7.30;99.90;;;;;;5110512;27;20075;-83
2022/01/16 12:38:35;;;;;;;19.55;6.47;;;8.80;99.90;;;;;;5110930;27;20047;-83
2022/01/16 12:41:08;;;;;;;16.88;4.85;;;7.30;99.90;;;;;;5092486;27;20043;-83
2022/01/16 12:43:48;;;;;;;14.63;5.63;;;7.30;99.90;;;;;;5094985;27;20517;-82
2022/01/16 12:46:26;;;;;;;10.00;4.57;;;7.30;99.90;;;;;;5077948;27;20084;-82
2022/01/16 12:48:56;;;;;;;11.68;4.07;;;7.30;99.90;;;;;;5093754;27;20122;-82
2022/01/16 12:51:27;;;;;;;12.80;5.45;;;7.30;99.90;;;;;;5094973;27;20522;-84
2022/01/16 12:54:04;;;;;;;20.27;5.65;;;7.30;99.90;;;;;;5076627;27;20043;-82
2022/01/16 12:56:43;;;;;;;20.00;5.72;;;7.30;99.90;;;;;;5092906;27;20050;-85
2022/01/16 12:59:21;;;;;;;17.50;5.95;;;8.70;99.90;;;;;;5091958;27;20258;-85
2022/01/16 13:01:56;;;;;;;12.57;4.90;;;7.30;99.90;;;;;;5108158;27;20122;-84
2022/01/16 13:04:21;;;;;;;15.23;5.45;;;9.20;99.90;;;;;;5093911;27;20042;-85
2022/01/16 13:06:47;;;;;;;8.65;4.70;;;7.30;99.90;;;;;;5111300;27;20035;-83
2022/01/16 13:09:14;;;;;;;10.95;4.93;;;7.30;99.90;;;;;;5093915;27;20125;-84
2022/01/16 13:11:45;;;;;;;14.38;4.53;;;7.10;99.90;;;;;;5108993;27;20047;-83
2022/01/16 13:14:22;;;;;;;13.30;5.50;;;7.30;99.90;;;;;;5093037;27;20486;-84
2022/01/16 13:16:53;;;;;;;14.25;4.93;;;7.30;99.90;;;;;;5093465;27;20043;-84
2022/01/16 13:19:27;;;;;;;17.98;5.55;;;8.00;99.90;;;;;;5092183;27;20039;-83
2022/01/16 13:22:13;;;;;;;20.20;6.60;;;9.20;99.90;;;;;;5111730;27;20467;-85
2022/01/16 13:24:39;;;;;;;12.13;5.55;;;7.20;99.90;;;;;;5075953;27;20050;-85
2022/01/16 13:27:15;;;;;;;14.80;5.70;;;7.20;99.90;;;;;;5111130;27;20039;-83
2022/01/16 13:30:02;;;;;;;13.43;4.93;;;7.20;99.90;;;;;;5093793;27;20039;-84